Noblesville, Indiana
Current Conditions -  °F | °C
As of 6:55 AM on Sunday 21 Dec 2014 (Local Time) from KTYQ Reporting Station
Haze Haze  
Wind Chill: 20°   Ceiling: Unl
Heat Index: 20°   Visibility: 4mi
Dew Point: 17°   Wind: 0mph
Humidity: 88%   Direction: NA
Pressure: 30.28"   Gusts: NA
Location:  40.05°N, 86.01°W
Report Text: KTYQ 211155Z AUTO 00000KT 4SM BR CLR M06/M08 A3028 RMK AO2 T10651082 11031 21065
Loading
Personal Weather Stations






























Interactive Weather Map New forecast layout! Learn more

10-Day Weather Forecast

Advertisements
Track Severe Weather on mobile